Time;durP1;ratioP1;P1;durP2;ratioP2;P2;SDS_P1;SDS_P2;PMS_P1;PMS_P2;Temp;Humidity;BMP_temperature;BMP_pressure;BME280_temperature;BME280_humidity;BME280_pressure;Samples;Min_cycle;Max_cycle;Signal;HPM_P1;HPM_P2
2022/12/01 00:01:34;;;;;;;66.83;36.43;;;;;;;;;;6310500;22;20219;-69
2022/12/01 00:04:00;;;;;;;64.67;35.30;;;;;;;;;;6310270;22;20195;-68
2022/12/01 00:06:26;;;;;;;65.80;34.23;;;;;;;;;;6310195;22;20160;-70
2022/12/01 00:11:37;;;;;;;56.07;30.97;;;;;;;;;;6312730;22;20193;-70
2022/12/01 00:14:03;;;;;;;63.43;36.10;;;;;;;;;;6310729;22;20195;-68
2022/12/01 00:16:30;;;;;;;63.53;34.57;;;;;;;;;;6311882;22;20182;-70
2022/12/01 00:18:56;;;;;;;74.07;36.97;;;;;;;;;;6312982;22;20145;-68
2022/12/01 00:21:27;;;;;;;64.87;33.13;;;;;;;;;;6311080;22;20179;-69
2022/12/01 00:23:54;;;;;;;78.00;36.43;;;;;;;;;;6308414;22;20200;-69
2022/12/01 00:26:21;;;;;;;73.07;35.50;;;;;;;;;;6282634;22;20164;-70
2022/12/01 00:28:51;;;;;;;69.23;32.27;;;;;;;;;;6282580;22;20165;-69
2022/12/01 00:31:17;;;;;;;72.83;33.77;;;;;;;;;;6282709;22;20171;-69
2022/12/01 00:33:43;;;;;;;69.00;32.40;;;;;;;;;;6310576;22;20243;-70
2022/12/01 00:36:09;;;;;;;71.53;32.17;;;;;;;;;;6310754;22;20191;-69
2022/12/01 00:38:35;;;;;;;71.80;33.77;;;;;;;;;;6283642;22;20184;-69
2022/12/01 00:41:01;;;;;;;78.30;34.33;;;;;;;;;;6313147;22;20145;-69
2022/12/01 00:43:27;;;;;;;76.07;35.33;;;;;;;;;;6288410;22;20673;-70
2022/12/01 00:45:53;;;;;;;79.77;36.20;;;;;;;;;;6310950;22;20203;-69
2022/12/01 00:48:19;;;;;;;74.27;33.60;;;;;;;;;;6310962;22;20175;-70
2022/12/01 00:50:45;;;;;;;69.80;34.77;;;;;;;;;;6316417;22;20152;-69
2022/12/01 00:53:11;;;;;;;76.87;34.80;;;;;;;;;;6319683;22;20273;-69
2022/12/01 00:55:39;;;;;;;64.50;27.23;;;;;;;;;;6289447;22;20176;-69
2022/12/01 00:58:04;;;;;;;77.33;35.07;;;;;;;;;;6317566;22;20141;-69
2022/12/01 01:00:30;;;;;;;70.87;32.37;;;;;;;;;;6290281;22;20156;-69
2022/12/01 01:02:57;;;;;;;76.83;32.83;;;;;;;;;;6283416;22;20354;-69
2022/12/01 01:05:23;;;;;;;47.37;21.47;;;;;;;;;;6310643;22;20159;-69
2022/12/01 01:07:49;;;;;;;74.93;34.77;;;;;;;;;;6283597;22;20157;-70
2022/12/01 01:10:15;;;;;;;80.10;36.33;;;;;;;;;;6310518;22;20155;-69
2022/12/01 01:12:40;;;;;;;72.70;32.17;;;;;;;;;;6310653;22;20169;-70
2022/12/01 01:15:07;;;;;;;84.53;38.57;;;;;;;;;;6310729;22;20202;-68
2022/12/01 01:17:33;;;;;;;85.80;39.23;;;;;;;;;;6310002;22;20155;-70
2022/12/01 01:19:59;;;;;;;83.47;37.53;;;;;;;;;;6310176;22;20144;-69
2022/12/01 01:22:25;;;;;;;78.17;35.60;;;;;;;;;;6309260;22;20669;-69
2022/12/01 01:24:51;;;;;;;81.77;36.83;;;;;;;;;;6309524;22;20145;-69
2022/12/01 01:27:17;;;;;;;88.20;37.20;;;;;;;;;;6282109;22;20175;-70
2022/12/01 01:29:43;;;;;;;72.07;30.03;;;;;;;;;;6310070;22;20149;-70
2022/12/01 01:32:09;;;;;;;72.80;34.03;;;;;;;;;;6312277;22;20176;-70
2022/12/01 01:34:35;;;;;;;94.33;38.13;;;;;;;;;;6310302;22;20145;-69
2022/12/01 01:37:01;;;;;;;89.90;36.93;;;;;;;;;;6309505;22;20226;-70
2022/12/01 01:39:27;;;;;;;102.20;41.47;;;;;;;;;;6309640;22;20216;-69
2022/12/01 01:41:52;;;;;;;91.60;38.40;;;;;;;;;;6309376;22;20602;-68
2022/12/01 01:44:37;;;;;;;87.70;37.03;;;;;;;;;;6309163;22;20163;-69
2022/12/01 01:47:03;;;;;;;87.63;38.50;;;;;;;;;;6309794;22;20155;-69
2022/12/01 01:49:29;;;;;;;98.03;39.40;;;;;;;;;;6308842;22;20148;-69
2022/12/01 01:51:56;;;;;;;97.23;40.03;;;;;;;;;;6309497;22;20629;-69
2022/12/01 01:54:27;;;;;;;97.33;41.80;;;;;;;;;;6281453;22;20162;-69
2022/12/01 01:56:54;;;;;;;107.70;39.70;;;;;;;;;;6309044;22;20251;-69
2022/12/01 01:59:21;;;;;;;105.13;40.87;;;;;;;;;;6309426;22;20145;-69
2022/12/01 02:01:50;;;;;;;106.73;40.77;;;;;;;;;;6308719;22;20148;-69
2022/12/01 02:04:16;;;;;;;97.83;41.23;;;;;;;;;;6308911;22;20148;-69
2022/12/01 02:06:42;;;;;;;110.77;41.67;;;;;;;;;;6308964;22;20144;-69
2022/12/01 02:09:09;;;;;;;94.93;38.93;;;;;;;;;;6308776;22;20152;-69
2022/12/01 02:11:56;;;;;;;75.40;30.80;;;;;;;;;;6308909;22;20152;-68
2022/12/01 02:14:37;;;;;;;94.40;37.13;;;;;;;;;;6281237;22;20163;-70
2022/12/01 02:17:10;;;;;;;95.67;37.57;;;;;;;;;;6308896;22;20161;-69
2022/12/01 02:19:36;;;;;;;96.63;40.00;;;;;;;;;;6308948;22;20140;-69
2022/12/01 02:22:05;;;;;;;97.13;35.97;;;;;;;;;;6281622;22;20219;-69
2022/12/01 02:24:49;;;;;;;104.30;38.33;;;;;;;;;;6309099;22;20141;-69
2022/12/01 02:27:23;;;;;;;73.23;30.20;;;;;;;;;;6308364;22;20149;-69
2022/12/01 02:30:01;;;;;;;66.90;27.63;;;;;;;;;;6308826;22;20151;-69
2022/12/01 02:32:36;;;;;;;97.17;38.17;;;;;;;;;;6281541;22;20267;-70
2022/12/01 02:35:11;;;;;;;91.63;35.77;;;;;;;;;;6308526;22;20152;-69
2022/12/01 02:37:43;;;;;;;89.97;37.27;;;;;;;;;;6281680;22;20164;-69
2022/12/01 02:40:18;;;;;;;89.33;36.93;;;;;;;;;;6308740;22;20152;-68
2022/12/01 02:43:03;;;;;;;97.63;39.07;;;;;;;;;;6308779;22;20243;-70
2022/12/01 02:45:36;;;;;;;87.90;36.07;;;;;;;;;;6308524;22;20176;-69
2022/12/01 02:48:04;;;;;;;87.67;38.07;;;;;;;;;;6280832;22;20153;-69
2022/12/01 02:50:33;;;;;;;94.33;37.83;;;;;;;;;;6308261;22;20152;-69
2022/12/01 02:52:59;;;;;;;94.07;38.20;;;;;;;;;;6280831;22;20206;-69
2022/12/01 02:55:25;;;;;;;91.47;36.30;;;;;;;;;;6312694;22;20184;-69
2022/12/01 02:57:51;;;;;;;91.37;36.47;;;;;;;;;;6287415;22;20157;-69
2022/12/01 03:00:17;;;;;;;91.73;38.27;;;;;;;;;;6314436;22;20167;-69
2022/12/01 03:02:52;;;;;;;93.97;36.77;;;;;;;;;;6317007;22;20165;-69
2022/12/01 03:05:24;;;;;;;77.70;33.37;;;;;;;;;;6308914;22;20152;-69
2022/12/01 03:07:57;;;;;;;77.87;32.00;;;;;;;;;;6280840;22;20156;-69
2022/12/01 03:10:32;;;;;;;78.80;34.60;;;;;;;;;;6280639;22;20160;-69
2022/12/01 03:13:01;;;;;;;82.67;34.17;;;;;;;;;;6310106;22;20614;-68
2022/12/01 03:15:27;;;;;;;70.73;33.87;;;;;;;;;;6307598;22;20531;-69
2022/12/01 03:17:59;;;;;;;75.57;34.30;;;;;;;;;;6280610;22;20159;-69
2022/12/01 03:20:31;;;;;;;64.63;31.73;;;;;;;;;;6308212;22;20567;-69
2022/12/01 03:23:06;;;;;;;60.17;31.90;;;;;;;;;;6307679;22;20219;-69
2022/12/01 03:25:32;;;;;;;47.37;28.87;;;;;;;;;;6308181;22;20137;-69
2022/12/01 03:27:59;;;;;;;57.70;30.10;;;;;;;;;;6281551;22;20160;-68
2022/12/01 03:30:27;;;;;;;52.90;29.07;;;;;;;;;;6307712;22;20144;-69
2022/12/01 03:33:00;;;;;;;46.93;26.97;;;;;;;;;;6309806;22;20169;-69
2022/12/01 03:35:29;;;;;;;48.47;24.73;;;;;;;;;;6283976;22;20176;-69
2022/12/01 03:38:18;;;;;;;43.90;24.70;;;;;;;;;;6288055;22;20152;-69
2022/12/01 03:40:45;;;;;;;41.70;24.33;;;;;;;;;;6299738;22;20156;-70
2022/12/01 03:43:16;;;;;;;42.23;23.03;;;;;;;;;;6310223;22;20172;-69
2022/12/01 03:46:01;;;;;;;38.30;23.20;;;;;;;;;;6311644;22;20223;-68
2022/12/01 03:48:27;;;;;;;38.20;22.53;;;;;;;;;;6290123;22;20648;-68
2022/12/01 03:50:57;;;;;;;41.37;23.87;;;;;;;;;;6280823;22;20161;-68
2022/12/01 03:53:26;;;;;;;50.07;28.70;;;;;;;;;;6307654;22;20618;-68
2022/12/01 03:55:56;;;;;;;61.67;31.90;;;;;;;;;;6280250;22;20172;-69
2022/12/01 03:58:25;;;;;;;71.57;34.30;;;;;;;;;;6307736;22;20137;-69
2022/12/01 04:00:54;;;;;;;66.27;32.27;;;;;;;;;;6281149;22;20629;-69
2022/12/01 04:03:22;;;;;;;63.13;32.77;;;;;;;;;;6282394;22;20513;-69
2022/12/01 04:05:48;;;;;;;66.33;30.53;;;;;;;;;;6307768;22;20156;-69
2022/12/01 04:08:14;;;;;;;59.33;28.37;;;;;;;;;;6279961;22;20235;-69
2022/12/01 04:10:40;;;;;;;62.40;28.93;;;;;;;;;;6280179;22;20164;-69
2022/12/01 04:13:10;;;;;;;58.23;27.93;;;;;;;;;;6308227;22;20164;-68
2022/12/01 04:15:37;;;;;;;58.90;28.27;;;;;;;;;;6308088;22;20164;-69
2022/12/01 04:18:03;;;;;;;54.13;28.70;;;;;;;;;;6280096;22;20149;-69
2022/12/01 04:20:29;;;;;;;54.60;26.07;;;;;;;;;;6279996;22;20235;-69
2022/12/01 04:22:55;;;;;;;56.27;26.97;;;;;;;;;;6307278;22;20184;-69
2022/12/01 04:25:21;;;;;;;57.47;27.17;;;;;;;;;;6307879;22;20156;-70
2022/12/01 04:27:47;;;;;;;51.57;27.07;;;;;;;;;;6280147;22;20156;-69
2022/12/01 04:30:13;;;;;;;51.93;27.83;;;;;;;;;;6280394;22;20199;-69
2022/12/01 04:32:40;;;;;;;54.33;28.37;;;;;;;;;;6279927;22;20173;-69
2022/12/01 04:35:07;;;;;;;53.00;27.47;;;;;;;;;;6308570;22;20149;-69
2022/12/01 04:37:33;;;;;;;51.33;26.80;;;;;;;;;;6309414;22;20231;-69
2022/12/01 04:39:59;;;;;;;63.10;31.27;;;;;;;;;;6282348;22;20167;-69
2022/12/01 04:42:25;;;;;;;59.00;30.60;;;;;;;;;;6309768;22;20160;-69
2022/12/01 04:44:51;;;;;;;65.97;33.73;;;;;;;;;;6309534;22;20151;-69
2022/12/01 04:47:17;;;;;;;56.77;29.90;;;;;;;;;;6309455;22;20153;-68
2022/12/01 04:49:43;;;;;;;64.23;31.17;;;;;;;;;;6282735;22;20156;-68
2022/12/01 04:52:09;;;;;;;60.23;31.43;;;;;;;;;;6310127;22;20270;-68
2022/12/01 04:54:35;;;;;;;70.63;34.47;;;;;;;;;;6314640;22;20156;-68
2022/12/01 04:57:01;;;;;;;72.67;33.30;;;;;;;;;;6309256;22;20345;-70
2022/12/01 04:59:27;;;;;;;65.20;32.53;;;;;;;;;;6281722;22;20153;-68
2022/12/01 05:01:52;;;;;;;77.83;33.67;;;;;;;;;;6281430;22;20191;-68
2022/12/01 05:04:18;;;;;;;74.03;33.40;;;;;;;;;;6309653;22;20476;-69
2022/12/01 05:06:44;;;;;;;78.80;33.17;;;;;;;;;;6308949;22;20610;-68
2022/12/01 05:09:12;;;;;;;79.10;35.47;;;;;;;;;;6281473;22;20187;-69
2022/12/01 05:11:38;;;;;;;87.67;38.50;;;;;;;;;;6308840;22;20594;-68
2022/12/01 05:14:04;;;;;;;92.03;42.27;;;;;;;;;;6281566;22;20152;-69
2022/12/01 05:16:31;;;;;;;78.27;40.17;;;;;;;;;;6309663;22;20618;-68
2022/12/01 05:21:44;;;;;;;86.40;42.20;;;;;;;;;;6309278;22;20648;-70
2022/12/01 05:24:11;;;;;;;90.57;41.13;;;;;;;;;;6309262;22;20148;-70
2022/12/01 05:26:37;;;;;;;86.20;39.13;;;;;;;;;;6281491;22;20195;-70
2022/12/01 05:29:03;;;;;;;77.63;36.77;;;;;;;;;;6281304;22;20152;-68
2022/12/01 05:31:29;;;;;;;71.87;31.00;;;;;;;;;;6309426;22;20178;-70
2022/12/01 05:33:55;;;;;;;64.37;34.33;;;;;;;;;;6281417;22;20524;-68
2022/12/01 05:36:21;;;;;;;68.70;33.67;;;;;;;;;;6281572;22;20251;-68
2022/12/01 05:38:47;;;;;;;61.40;30.63;;;;;;;;;;6281462;22;20153;-68
2022/12/01 05:41:14;;;;;;;56.70;29.03;;;;;;;;;;6281778;22;20496;-68
2022/12/01 05:43:40;;;;;;;70.40;36.10;;;;;;;;;;6283199;22;20260;-68
2022/12/01 05:46:06;;;;;;;58.77;30.17;;;;;;;;;;6281418;22;20160;-70
2022/12/01 05:48:31;;;;;;;44.67;22.50;;;;;;;;;;6281278;22;20175;-68
2022/12/01 05:50:57;;;;;;;56.80;28.87;;;;;;;;;;6281725;22;20153;-70
2022/12/01 05:53:23;;;;;;;49.93;26.63;;;;;;;;;;6280971;22;20573;-70
2022/12/01 05:55:53;;;;;;;52.57;28.63;;;;;;;;;;6309046;22;20621;-70
2022/12/01 05:58:19;;;;;;;49.93;26.10;;;;;;;;;;6309165;22;20218;-70
2022/12/01 06:00:45;;;;;;;45.37;24.50;;;;;;;;;;6281192;22;20156;-69
2022/12/01 06:03:11;;;;;;;51.37;27.30;;;;;;;;;;6308582;22;20199;-69
2022/12/01 06:05:37;;;;;;;48.77;29.20;;;;;;;;;;6281073;22;20164;-70
2022/12/01 06:08:03;;;;;;;56.33;26.97;;;;;;;;;;6281171;22;20502;-68
2022/12/01 06:10:29;;;;;;;59.30;29.43;;;;;;;;;;6309394;22;20582;-70
2022/12/01 06:12:55;;;;;;;63.07;31.43;;;;;;;;;;6308880;22;20177;-69
2022/12/01 06:15:21;;;;;;;57.67;29.50;;;;;;;;;;6308368;22;20168;-69
2022/12/01 06:17:47;;;;;;;59.93;30.23;;;;;;;;;;6308474;22;20202;-68
2022/12/01 06:20:13;;;;;;;61.47;29.63;;;;;;;;;;6308298;22;20488;-68
2022/12/01 06:22:39;;;;;;;54.27;29.50;;;;;;;;;;6280662;22;20570;-68
2022/12/01 06:25:05;;;;;;;56.87;29.00;;;;;;;;;;6280543;22;20211;-68
2022/12/01 06:27:31;;;;;;;55.90;27.77;;;;;;;;;;6277517;22;20665;-70
2022/12/01 06:29:57;;;;;;;48.77;26.50;;;;;;;;;;6279725;22;20177;-70
2022/12/01 06:32:23;;;;;;;48.80;25.50;;;;;;;;;;6279584;22;20474;-69
2022/12/01 06:34:49;;;;;;;56.07;27.03;;;;;;;;;;6280003;22;20160;-70
2022/12/01 06:37:15;;;;;;;59.90;30.80;;;;;;;;;;6279182;22;20642;-71
2022/12/01 06:39:41;;;;;;;59.90;29.37;;;;;;;;;;6279706;22;20557;-71
2022/12/01 06:42:07;;;;;;;53.67;24.57;;;;;;;;;;6280555;22;20153;-72
2022/12/01 06:44:33;;;;;;;50.97;27.27;;;;;;;;;;6277876;22;20149;-70
2022/12/01 06:46:59;;;;;;;57.10;28.10;;;;;;;;;;6278095;22;20256;-71
2022/12/01 06:49:25;;;;;;;54.37;26.63;;;;;;;;;;6280015;22;20149;-70
2022/12/01 06:51:51;;;;;;;55.80;28.20;;;;;;;;;;6279420;22;20153;-71
2022/12/01 06:54:17;;;;;;;50.93;22.50;;;;;;;;;;6277982;22;20622;-71
2022/12/01 06:56:44;;;;;;;59.53;27.70;;;;;;;;;;6278597;22;20193;-70
2022/12/01 06:59:11;;;;;;;66.27;30.63;;;;;;;;;;6277956;22;20160;-70
2022/12/01 07:01:37;;;;;;;61.13;29.73;;;;;;;;;;6279874;22;20144;-70
2022/12/01 07:04:03;;;;;;;60.37;26.57;;;;;;;;;;6280070;22;20220;-71
2022/12/01 07:06:29;;;;;;;61.20;27.73;;;;;;;;;;6280248;22;20180;-73
2022/12/01 07:08:55;;;;;;;58.47;28.07;;;;;;;;;;6280233;22;20180;-70
2022/12/01 07:11:21;;;;;;;60.53;25.17;;;;;;;;;;6281089;22;20599;-72
2022/12/01 07:13:49;;;;;;;61.13;30.27;;;;;;;;;;6281276;22;20192;-70
2022/12/01 07:16:15;;;;;;;61.00;28.97;;;;;;;;;;6280772;22;20173;-70
2022/12/01 07:18:43;;;;;;;40.60;21.33;;;;;;;;;;6280722;22;20619;-72
2022/12/01 07:21:10;;;;;;;57.63;27.03;;;;;;;;;;6279399;22;20153;-70
2022/12/01 07:23:36;;;;;;;52.20;26.67;;;;;;;;;;6278287;22;20263;-70
2022/12/01 07:26:04;;;;;;;54.97;26.23;;;;;;;;;;6279882;22;20150;-70
2022/12/01 07:28:30;;;;;;;56.63;26.70;;;;;;;;;;6309250;22;20184;-70
2022/12/01 07:31:02;;;;;;;55.40;25.57;;;;;;;;;;6283079;22;20598;-70
2022/12/01 07:33:28;;;;;;;59.10;27.53;;;;;;;;;;6310606;22;20148;-72
2022/12/01 07:35:54;;;;;;;46.70;22.93;;;;;;;;;;6310205;22;20178;-70
2022/12/01 07:38:20;;;;;;;58.77;27.67;;;;;;;;;;6283052;22;20630;-70
2022/12/01 07:40:46;;;;;;;59.93;28.07;;;;;;;;;;6310693;22;20157;-69
2022/12/01 07:43:12;;;;;;;58.50;28.23;;;;;;;;;;6310646;22;20149;-69
2022/12/01 07:45:37;;;;;;;61.90;28.70;;;;;;;;;;6311355;22;20180;-72
2022/12/01 07:48:03;;;;;;;59.77;28.00;;;;;;;;;;6310877;22;20179;-71
2022/12/01 07:50:29;;;;;;;67.27;29.60;;;;;;;;;;6311206;22;20155;-71
2022/12/01 07:52:55;;;;;;;59.77;30.10;;;;;;;;;;6282871;22;20504;-71
2022/12/01 07:55:21;;;;;;;55.40;24.53;;;;;;;;;;6310507;22;20184;-70
2022/12/01 07:57:47;;;;;;;68.70;27.93;;;;;;;;;;6310435;22;20217;-71
2022/12/01 08:00:13;;;;;;;64.43;28.60;;;;;;;;;;6310225;22;20151;-72
2022/12/01 08:02:39;;;;;;;65.40;29.97;;;;;;;;;;6310058;22;20148;-71
2022/12/01 08:05:06;;;;;;;67.30;27.97;;;;;;;;;;6282702;22;20192;-69
2022/12/01 08:07:32;;;;;;;59.97;27.13;;;;;;;;;;6310241;22;20168;-70
2022/12/01 08:09:57;;;;;;;64.57;29.37;;;;;;;;;;6310577;22;20144;-68
2022/12/01 08:12:23;;;;;;;61.13;29.57;;;;;;;;;;6311033;22;20155;-71
2022/12/01 08:14:49;;;;;;;65.33;28.47;;;;;;;;;;6285453;22;20152;-70
2022/12/01 08:17:15;;;;;;;68.00;30.20;;;;;;;;;;6284849;22;20266;-73
2022/12/01 08:19:41;;;;;;;63.47;31.73;;;;;;;;;;6285243;22;20149;-71
2022/12/01 08:22:07;;;;;;;66.63;30.13;;;;;;;;;;6284722;22;20492;-71
2022/12/01 08:24:33;;;;;;;61.47;28.90;;;;;;;;;;6285468;22;20149;-71
2022/12/01 08:26:59;;;;;;;63.50;31.57;;;;;;;;;;6312293;22;20184;-71
2022/12/01 08:29:25;;;;;;;64.43;29.13;;;;;;;;;;6312079;22;20151;-71
2022/12/01 08:31:51;;;;;;;65.40;28.20;;;;;;;;;;6311413;22;20152;-71
2022/12/01 08:34:17;;;;;;;59.93;27.13;;;;;;;;;;6311744;22;20152;-69
2022/12/01 08:36:43;;;;;;;70.97;30.40;;;;;;;;;;6284297;22;20230;-71
2022/12/01 08:39:11;;;;;;;65.50;30.03;;;;;;;;;;6284712;22;20156;-68
2022/12/01 08:41:37;;;;;;;64.77;30.27;;;;;;;;;;6284586;22;20153;-71
2022/12/01 08:44:03;;;;;;;78.33;33.10;;;;;;;;;;6312749;22;20148;-71
2022/12/01 08:46:31;;;;;;;61.07;29.90;;;;;;;;;;6284772;22;20157;-70
2022/12/01 08:48:57;;;;;;;76.50;30.93;;;;;;;;;;6311667;22;20153;-68
2022/12/01 08:51:23;;;;;;;64.37;33.10;;;;;;;;;;6284261;22;20172;-71
2022/12/01 08:53:49;;;;;;;65.20;30.03;;;;;;;;;;6284749;22;20160;-73
2022/12/01 08:56:17;;;;;;;64.87;30.10;;;;;;;;;;6284708;22;20180;-70
2022/12/01 08:58:43;;;;;;;60.57;29.30;;;;;;;;;;6311944;22;20152;-71
2022/12/01 09:01:10;;;;;;;67.43;31.63;;;;;;;;;;6311811;22;20153;-70
2022/12/01 09:03:37;;;;;;;61.73;29.03;;;;;;;;;;6284359;22;20480;-69
2022/12/01 09:06:04;;;;;;;69.93;29.80;;;;;;;;;;6284339;22;20494;-71
2022/12/01 09:08:31;;;;;;;62.33;31.53;;;;;;;;;;6312300;22;20168;-70
2022/12/01 09:10:57;;;;;;;72.20;30.47;;;;;;;;;;6312229;22;20152;-71
2022/12/01 09:13:23;;;;;;;53.37;24.07;;;;;;;;;;6311579;22;20153;-69
2022/12/01 09:15:59;;;;;;;58.87;28.83;;;;;;;;;;6283690;22;20194;-70
2022/12/01 09:18:25;;;;;;;61.63;32.63;;;;;;;;;;6311045;22;20168;-70
2022/12/01 09:20:52;;;;;;;60.97;30.60;;;;;;;;;;6284770;22;20235;-69
2022/12/01 09:23:18;;;;;;;60.90;30.93;;;;;;;;;;6312034;22;20171;-71
2022/12/01 09:25:44;;;;;;;64.10;30.93;;;;;;;;;;6311895;22;20157;-68
2022/12/01 09:28:10;;;;;;;65.53;32.00;;;;;;;;;;6311678;22;20646;-71
2022/12/01 09:30:36;;;;;;;61.27;30.30;;;;;;;;;;6311759;22;20188;-70
2022/12/01 09:33:02;;;;;;;61.30;31.57;;;;;;;;;;6311815;22;20160;-70
2022/12/01 09:35:30;;;;;;;57.63;28.50;;;;;;;;;;6311697;22;20182;-70
2022/12/01 09:37:56;;;;;;;54.63;29.10;;;;;;;;;;6283685;22;20656;-72
2022/12/01 09:40:30;;;;;;;55.63;27.53;;;;;;;;;;6311703;22;20180;-70
2022/12/01 09:42:56;;;;;;;42.17;22.60;;;;;;;;;;6284275;22;20176;-70
2022/12/01 09:45:25;;;;;;;48.13;27.63;;;;;;;;;;6311529;22;20159;-73
2022/12/01 09:47:53;;;;;;;47.40;25.97;;;;;;;;;;6311696;22;20164;-69
2022/12/01 09:50:24;;;;;;;52.23;27.13;;;;;;;;;;6311774;22;20145;-71
2022/12/01 09:52:52;;;;;;;54.73;27.83;;;;;;;;;;6312221;22;20160;-70
2022/12/01 09:55:19;;;;;;;53.27;28.43;;;;;;;;;;6312298;22;20665;-70
2022/12/01 09:57:49;;;;;;;55.20;29.63;;;;;;;;;;6311841;22;20717;-71
2022/12/01 10:00:18;;;;;;;51.23;27.47;;;;;;;;;;6284192;22;20187;-71
2022/12/01 10:02:48;;;;;;;47.20;26.97;;;;;;;;;;6283913;22;20157;-69
2022/12/01 10:05:16;;;;;;;60.17;31.60;;;;;;;;;;6311504;22;20159;-69
2022/12/01 10:08:02;;;;;;;52.20;29.07;;;;;;;;;;6283985;22;20222;-70
2022/12/01 10:10:30;;;;;;;55.27;29.77;;;;;;;;;;6311001;22;20157;-70
2022/12/01 10:12:57;;;;;;;53.10;31.00;;;;;;;;;;6311079;22;20145;-71
2022/12/01 10:15:23;;;;;;;61.83;31.63;;;;;;;;;;6310658;22;20172;-70
2022/12/01 10:18:03;;;;;;;51.07;28.77;;;;;;;;;;6310520;22;20622;-70
2022/12/01 10:20:33;;;;;;;57.07;31.27;;;;;;;;;;6311752;22;20214;-70
2022/12/01 10:23:08;;;;;;;58.90;32.80;;;;;;;;;;6284860;22;20464;-69
2022/12/01 10:25:48;;;;;;;54.57;31.30;;;;;;;;;;6283852;22;20151;-70
2022/12/01 10:28:17;;;;;;;59.93;32.70;;;;;;;;;;6310914;22;20199;-70
2022/12/01 10:30:48;;;;;;;52.03;30.03;;;;;;;;;;6311457;22;20221;-69
2022/12/01 10:33:21;;;;;;;58.30;33.43;;;;;;;;;;6283575;22;20582;-69
2022/12/01 10:35:47;;;;;;;68.57;33.07;;;;;;;;;;6311250;22;20168;-70
2022/12/01 10:38:19;;;;;;;58.17;33.97;;;;;;;;;;6311548;22;20196;-70
2022/12/01 10:40:45;;;;;;;58.30;30.97;;;;;;;;;;6283991;22;20145;-72
2022/12/01 10:43:12;;;;;;;56.07;32.20;;;;;;;;;;6312545;22;20152;-74
2022/12/01 10:45:41;;;;;;;54.00;32.17;;;;;;;;;;6284298;22;20629;-72
2022/12/01 10:48:14;;;;;;;53.13;29.90;;;;;;;;;;6311798;22;20173;-72
2022/12/01 10:50:41;;;;;;;56.90;31.70;;;;;;;;;;6285283;22;20158;-72
2022/12/01 10:53:20;;;;;;;57.17;32.80;;;;;;;;;;6311620;22;20152;-72
2022/12/01 10:55:49;;;;;;;51.17;31.93;;;;;;;;;;6308241;22;20208;-71
2022/12/01 10:58:16;;;;;;;61.23;32.40;;;;;;;;;;6311019;22;20169;-71
2022/12/01 11:00:43;;;;;;;59.37;31.87;;;;;;;;;;6283969;22;20152;-71
2022/12/01 11:03:19;;;;;;;56.30;29.50;;;;;;;;;;6312022;22;20145;-72
2022/12/01 11:05:51;;;;;;;60.23;31.67;;;;;;;;;;6311412;22;20148;-72
2022/12/01 11:08:39;;;;;;;57.43;30.73;;;;;;;;;;6311500;22;20169;-71
2022/12/01 11:11:05;;;;;;;64.03;32.43;;;;;;;;;;6284066;22;20163;-72
2022/12/01 11:13:34;;;;;;;52.17;31.03;;;;;;;;;;6311304;22;20144;-72
2022/12/01 11:16:01;;;;;;;56.80;32.77;;;;;;;;;;6284300;22;20180;-72
2022/12/01 11:18:27;;;;;;;50.23;29.47;;;;;;;;;;6284264;22;20199;-74
2022/12/01 11:21:12;;;;;;;65.87;31.13;;;;;;;;;;6285194;22;20209;-72
2022/12/01 11:23:43;;;;;;;54.97;33.37;;;;;;;;;;6284765;22;20171;-73
2022/12/01 11:26:15;;;;;;;54.27;30.97;;;;;;;;;;6313515;22;20471;-70
2022/12/01 11:28:42;;;;;;;67.03;37.20;;;;;;;;;;6285097;22;20168;-72
2022/12/01 11:31:10;;;;;;;64.70;41.07;;;;;;;;;;6284897;22;20159;-71
2022/12/01 11:33:43;;;;;;;52.43;30.30;;;;;;;;;;6284664;22;20316;-73
2022/12/01 11:36:09;;;;;;;55.57;32.17;;;;;;;;;;6285449;22;20176;-71
2022/12/01 11:38:35;;;;;;;54.77;34.43;;;;;;;;;;6284553;22;20173;-73
2022/12/01 11:41:01;;;;;;;59.57;37.10;;;;;;;;;;6312949;22;20167;-71
2022/12/01 11:43:30;;;;;;;53.90;32.03;;;;;;;;;;6312413;22;20223;-72
2022/12/01 11:45:57;;;;;;;50.73;31.67;;;;;;;;;;6313227;22;20529;-71
2022/12/01 11:48:25;;;;;;;52.47;35.07;;;;;;;;;;6286696;22;20263;-72
2022/12/01 11:51:10;;;;;;;53.60;34.53;;;;;;;;;;6314527;22;20152;-71
2022/12/01 11:53:37;;;;;;;51.70;34.27;;;;;;;;;;6314064;22;20544;-72
2022/12/01 11:56:13;;;;;;;51.53;33.00;;;;;;;;;;6314378;22;20191;-71
2022/12/01 11:58:39;;;;;;;50.93;32.70;;;;;;;;;;6313660;22;20152;-71
2022/12/01 12:01:10;;;;;;;52.33;32.43;;;;;;;;;;6313936;22;20156;-72
2022/12/01 12:03:41;;;;;;;50.90;33.23;;;;;;;;;;6285734;22;20155;-73
2022/12/01 12:06:15;;;;;;;50.90;31.33;;;;;;;;;;6286592;22;20251;-74
2022/12/01 12:08:56;;;;;;;55.07;32.33;;;;;;;;;;6313382;22;20190;-71
2022/12/01 12:11:28;;;;;;;57.37;34.30;;;;;;;;;;6313203;22;20152;-70
2022/12/01 12:14:13;;;;;;;54.83;32.70;;;;;;;;;;6285373;22;20583;-71
2022/12/01 12:16:45;;;;;;;55.10;32.67;;;;;;;;;;6312170;22;20184;-71
2022/12/01 12:19:11;;;;;;;55.27;34.83;;;;;;;;;;6284766;22;20523;-71
2022/12/01 12:21:55;;;;;;;56.90;34.13;;;;;;;;;;6312994;22;20201;-71
2022/12/01 12:24:33;;;;;;;55.30;33.27;;;;;;;;;;6312592;22;20223;-70
2022/12/01 12:27:02;;;;;;;52.63;34.13;;;;;;;;;;6312523;22;20266;-71
2022/12/01 12:29:40;;;;;;;52.33;33.27;;;;;;;;;;6311952;22;20177;-71
2022/12/01 12:32:19;;;;;;;49.47;30.50;;;;;;;;;;6284395;22;20194;-74
2022/12/01 12:35:11;;;;;;;50.93;29.83;;;;;;;;;;6312020;22;20642;-69
2022/12/01 12:37:37;;;;;;;44.60;27.03;;;;;;;;;;6247277;22;20241;-70
2022/12/01 12:40:24;;;;;;;48.33;25.93;;;;;;;;;;6281991;22;20606;-69
2022/12/01 12:42:58;;;;;;;46.70;26.10;;;;;;;;;;6282080;22;20224;-70
2022/12/01 12:45:30;;;;;;;52.37;29.67;;;;;;;;;;6309614;22;20172;-69
2022/12/01 12:48:19;;;;;;;53.50;29.80;;;;;;;;;;6281713;22;20475;-69
2022/12/01 12:50:48;;;;;;;52.33;29.60;;;;;;;;;;6309365;22;20148;-69
2022/12/01 12:53:18;;;;;;;53.93;29.43;;;;;;;;;;6308980;22;20149;-69
2022/12/01 12:55:48;;;;;;;56.47;30.90;;;;;;;;;;6308784;22;20184;-70
2022/12/01 12:58:22;;;;;;;50.73;30.17;;;;;;;;;;6281258;22;20157;-69
2022/12/01 13:00:51;;;;;;;57.50;32.47;;;;;;;;;;6309842;22;20136;-68
2022/12/01 13:03:36;;;;;;;48.73;30.30;;;;;;;;;;6309385;22;20204;-69
2022/12/01 13:06:08;;;;;;;51.67;29.53;;;;;;;;;;6281604;22;20180;-68
2022/12/01 13:08:49;;;;;;;48.17;28.27;;;;;;;;;;6282031;22;20232;-70
2022/12/01 13:11:17;;;;;;;49.00;28.63;;;;;;;;;;6309077;22;20148;-69
2022/12/01 13:13:49;;;;;;;53.50;31.40;;;;;;;;;;6281620;22;20163;-69
2022/12/01 13:16:17;;;;;;;54.27;31.13;;;;;;;;;;6309072;22;20617;-69
2022/12/01 13:18:47;;;;;;;55.47;33.13;;;;;;;;;;6283106;22;20152;-69
2022/12/01 13:21:15;;;;;;;55.13;32.63;;;;;;;;;;6309090;22;20659;-69
2022/12/01 13:23:41;;;;;;;52.17;31.47;;;;;;;;;;6309243;22;20230;-69
2022/12/01 13:26:09;;;;;;;55.33;33.07;;;;;;;;;;6281561;22;20161;-69
2022/12/01 13:28:41;;;;;;;58.93;33.10;;;;;;;;;;6308669;22;20156;-69
2022/12/01 13:31:08;;;;;;;58.47;33.03;;;;;;;;;;6308818;22;20165;-69
2022/12/01 13:33:35;;;;;;;60.77;35.53;;;;;;;;;;6309146;22;20148;-69
2022/12/01 13:36:06;;;;;;;56.33;33.17;;;;;;;;;;6308482;22;20550;-69
2022/12/01 13:38:33;;;;;;;45.27;25.17;;;;;;;;;;6308981;22;20141;-69
2022/12/01 13:41:10;;;;;;;65.47;36.30;;;;;;;;;;6308975;22;20145;-69
2022/12/01 13:43:36;;;;;;;57.93;33.30;;;;;;;;;;6281767;22;20492;-69
2022/12/01 13:46:03;;;;;;;64.63;34.90;;;;;;;;;;6308697;22;20199;-69
2022/12/01 13:48:49;;;;;;;62.03;38.20;;;;;;;;;;6308902;22;20540;-69
2022/12/01 13:51:15;;;;;;;61.37;33.97;;;;;;;;;;6281409;22;20546;-69
2022/12/01 13:54:01;;;;;;;61.23;36.03;;;;;;;;;;6309021;22;20153;-69
2022/12/01 13:56:33;;;;;;;59.43;36.03;;;;;;;;;;6281257;22;20524;-69
2022/12/01 13:58:59;;;;;;;56.97;31.63;;;;;;;;;;6281190;22;20153;-69
2022/12/01 14:01:25;;;;;;;62.30;37.17;;;;;;;;;;6309091;22;20155;-69
2022/12/01 14:03:51;;;;;;;58.07;35.90;;;;;;;;;;6280960;22;20152;-69
2022/12/01 14:06:49;;;;;;;64.53;38.07;;;;;;;;;;6315542;22;20149;-68
2022/12/01 14:09:31;;;;;;;60.30;35.17;;;;;;;;;;6318064;22;20156;-69
2022/12/01 14:12:01;;;;;;;59.77;36.87;;;;;;;;;;6325184;22;20182;-69
2022/12/01 14:14:32;;;;;;;64.43;39.07;;;;;;;;;;6319909;22;20168;-69
2022/12/01 14:17:01;;;;;;;62.70;37.93;;;;;;;;;;6313738;22;20196;-69
2022/12/01 14:19:35;;;;;;;68.07;38.97;;;;;;;;;;6311871;22;20223;-68
2022/12/01 14:22:01;;;;;;;62.70;38.67;;;;;;;;;;6309078;22;20148;-69
2022/12/01 14:24:27;;;;;;;68.73;41.77;;;;;;;;;;6282098;22;20229;-69
2022/12/01 14:26:54;;;;;;;65.37;39.47;;;;;;;;;;6311707;22;20178;-69
2022/12/01 14:29:41;;;;;;;74.30;40.07;;;;;;;;;;6288149;22;20157;-69
2022/12/01 14:32:07;;;;;;;69.93;43.53;;;;;;;;;;6314085;22;20133;-69